createdAt,value
2022-09-28T00:00:33.286Z,95556.81
2022-09-28T00:02:37.283Z,95563.09
2022-09-28T00:04:40.002Z,95561.53
2022-09-28T00:06:42.552Z,95557.97
2022-09-28T00:08:45.462Z,95553.19
2022-09-28T00:10:55.878Z,95544.84
2022-09-28T00:13:00.625Z,95543.97
2022-09-28T00:15:03.424Z,95549.66
2022-09-28T00:17:05.963Z,95532.22
2022-09-28T00:19:10.639Z,95535.88
2022-09-28T00:21:15.522Z,95529.72
2022-09-28T00:23:18.057Z,95530.63
2022-09-28T00:25:22.034Z,95530.25
2022-09-28T00:27:24.700Z,95525.25
2022-09-28T00:29:29.417Z,95522.13
2022-09-28T00:31:33.978Z,95517.13
2022-09-28T00:33:36.535Z,95517.59
2022-09-28T00:35:40.778Z,95502.72
2022-09-28T00:37:43.368Z,95502.09
2022-09-28T00:39:46.933Z,95494.25
2022-09-28T00:41:49.815Z,95490.09
2022-09-28T00:43:53.102Z,95487.66
2022-09-28T00:45:59.918Z,95486.84
2022-09-28T00:48:02.620Z,95477.19
2022-09-28T00:50:09.908Z,95472.41
2022-09-28T00:52:19.923Z,95467.81
2022-09-28T00:54:23.325Z,95469.56
2022-09-28T00:56:29.033Z,95463.72
2022-09-28T00:58:34.626Z,95451.63
2022-09-28T01:00:37.318Z,95444.13
2022-09-28T01:02:40.040Z,95441.84
2022-09-28T01:04:42.620Z,95436.72
2022-09-28T01:06:47.852Z,95428.41
2022-09-28T01:08:55.491Z,95420.34
2022-09-28T01:10:58.600Z,95416.84
2022-09-28T01:13:01.141Z,95415.16
2022-09-28T01:15:05.553Z,95409.13
2022-09-28T01:17:14.696Z,95401.19
2022-09-28T01:19:33.170Z,95396.28
2022-09-28T01:21:43.067Z,95406.00
2022-09-28T01:24:15.173Z,95390.53
2022-09-28T01:26:47.559Z,95397.66
2022-09-28T01:28:54.073Z,95397.72
2022-09-28T01:31:06.682Z,95382.22
2022-09-28T01:33:13.792Z,95384.94
2022-09-28T01:35:19.492Z,95382.44
2022-09-28T01:37:25.623Z,95374.69
2022-09-28T01:39:34.353Z,95374.91
2022-09-28T01:41:41.037Z,95370.53
2022-09-28T01:43:49.322Z,95371.16
2022-09-28T01:45:55.696Z,95373.88
2022-09-28T01:48:03.035Z,95362.81
2022-09-28T01:50:10.715Z,95357.16
2022-09-28T01:52:19.301Z,95362.38
2022-09-28T01:54:28.608Z,95365.31
2022-09-28T01:56:36.087Z,95357.78
2022-09-28T01:58:46.232Z,95351.56
2022-09-28T02:00:53.708Z,95345.72
2022-09-28T02:03:02.845Z,95353.59
2022-09-28T02:05:11.304Z,95339.66
2022-09-28T02:07:19.102Z,95350.09
2022-09-28T02:09:30.492Z,95337.22
2022-09-28T02:11:37.372Z,95331.63
2022-09-28T02:13:44.669Z,95326.16
2022-09-28T02:15:52.793Z,95325.16
2022-09-28T02:17:55.761Z,95321.81
2022-09-28T02:19:58.362Z,95323.06
2022-09-28T02:22:09.304Z,95316.19
2022-09-28T02:24:21.410Z,95305.56
2022-09-28T02:26:30.549Z,95309.16
2022-09-28T02:28:33.213Z,95304.66
2022-09-28T02:30:42.340Z,95311.25
2022-09-28T02:32:49.635Z,95318.44
2022-09-28T02:34:52.187Z,95315.09
2022-09-28T02:36:54.795Z,95309.28
2022-09-28T02:38:58.914Z,95307.69
2022-09-28T02:41:06.880Z,95305.63
2022-09-28T02:43:20.332Z,95300.41
2022-09-28T02:45:35.068Z,95297.88
2022-09-28T02:47:56.411Z,95287.88
2022-09-28T02:50:12.005Z,95279.09
2022-09-28T02:52:37.721Z,95275.88
2022-09-28T02:55:10.907Z,95272.84
2022-09-28T02:57:27.779Z,95271.41
2022-09-28T02:59:47.614Z,95273.28
2022-09-28T03:01:57.361Z,95271.13
2022-09-28T03:04:09.984Z,95266.53
2022-09-28T03:06:22.872Z,95265.56
2022-09-28T03:08:30.469Z,95270.28
2022-09-28T03:10:39.076Z,95273.84
2022-09-28T03:12:44.305Z,95276.72
2022-09-28T03:14:47.002Z,95272.75
2022-09-28T03:16:49.574Z,95264.53
2022-09-28T03:18:52.109Z,95271.00
2022-09-28T03:20:56.695Z,95273.00
2022-09-28T03:23:23.912Z,95261.94
2022-09-28T03:25:21.876Z,95273.75
2022-09-28T03:27:24.454Z,95259.78
2022-09-28T03:29:27.036Z,95266.66
2022-09-28T03:31:29.827Z,95260.59
2022-09-28T03:33:32.445Z,95254.59
2022-09-28T03:35:35.059Z,95245.19
2022-09-28T03:37:39.109Z,95254.66
2022-09-28T03:39:41.685Z,95255.50
2022-09-28T03:41:44.248Z,95256.47
2022-09-28T03:43:46.892Z,95257.59
2022-09-28T03:45:54.133Z,95249.16
2022-09-28T03:47:56.912Z,95257.06
2022-09-28T03:49:59.423Z,95255.50
2022-09-28T03:52:02.433Z,95249.56
2022-09-28T03:54:06.682Z,95250.00
2022-09-28T03:56:12.560Z,95240.72
2022-09-28T03:58:15.107Z,95238.13
2022-09-28T04:00:17.945Z,95239.09
2022-09-28T04:02:20.556Z,95236.38
2022-09-28T04:04:23.289Z,95230.41
2022-09-28T04:06:25.933Z,95224.47
2022-09-28T04:08:29.416Z,95222.31
2022-09-28T04:10:33.332Z,95238.56
2022-09-28T04:12:35.928Z,95227.94
2022-09-28T04:14:38.673Z,95238.47
2022-09-28T04:16:41.290Z,95235.84
2022-09-28T04:18:43.907Z,95239.19
2022-09-28T04:20:48.025Z,95232.31
2022-09-28T04:22:50.569Z,95234.78
2022-09-28T04:24:53.114Z,95233.13
2022-09-28T04:27:17.408Z,95229.38
2022-09-28T04:29:19.507Z,95230.41
2022-09-28T04:31:25.380Z,95227.59
2022-09-28T04:33:27.969Z,95218.13
2022-09-28T04:35:30.534Z,95221.44
2022-09-28T04:37:33.738Z,95218.84
2022-09-28T04:39:36.299Z,95219.03
2022-09-28T04:41:38.953Z,95232.91
2022-09-28T04:43:42.925Z,95224.97
2022-09-28T04:45:45.470Z,95235.41
2022-09-28T04:47:48.014Z,95234.06
2022-09-28T04:49:50.557Z,95227.94
2022-09-28T04:51:53.072Z,95230.88
2022-09-28T04:53:56.374Z,95230.66
2022-09-28T04:56:00.430Z,95229.19
2022-09-28T04:58:05.323Z,95229.81
2022-09-28T05:00:11.067Z,95233.13
2022-09-28T05:02:15.102Z,95231.25
2022-09-28T05:04:20.266Z,95239.50
2022-09-28T05:06:27.949Z,95238.56
2022-09-28T05:08:30.574Z,95234.41
2022-09-28T05:10:33.160Z,95226.69
2022-09-28T05:12:35.699Z,95234.72
2022-09-28T05:14:38.348Z,95235.47
2022-09-28T05:16:42.286Z,95238.38
2022-09-28T05:18:44.937Z,95240.06
2022-09-28T05:20:47.556Z,95241.59
2022-09-28T05:22:50.101Z,95242.72
2022-09-28T05:24:54.647Z,95243.16
2022-09-28T05:26:57.222Z,95247.44
2022-09-28T05:28:59.793Z,95243.97
2022-09-28T05:31:04.014Z,95251.59
2022-09-28T05:33:08.932Z,95252.00
2022-09-28T05:35:12.265Z,95250.53
2022-09-28T05:37:14.823Z,95254.91
2022-09-28T05:39:17.497Z,95252.22
2022-09-28T05:41:20.191Z,95253.78
2022-09-28T05:43:23.427Z,95252.22
2022-09-28T05:45:25.992Z,95259.94
2022-09-28T05:47:28.619Z,95262.53
2022-09-28T05:49:32.591Z,95265.16
2022-09-28T05:51:35.231Z,95272.13
2022-09-28T05:53:37.833Z,95272.00
2022-09-28T05:55:40.551Z,95270.25
2022-09-28T05:57:43.280Z,95271.91
2022-09-28T05:59:45.923Z,95287.53
2022-09-28T06:01:48.540Z,95286.63
2022-09-28T06:03:53.285Z,95292.75
2022-09-28T06:05:57.165Z,95287.44
2022-09-28T06:08:00.542Z,95290.03
2022-09-28T06:10:03.113Z,95288.38
2022-09-28T06:12:05.780Z,95298.91
2022-09-28T06:14:08.352Z,95295.69
2022-09-28T06:16:16.052Z,95307.03
2022-09-28T06:18:18.653Z,95308.00
2022-09-28T06:20:21.223Z,95304.66
2022-09-28T06:22:25.133Z,95299.44
2022-09-28T06:24:27.847Z,95302.25
2022-09-28T06:26:30.995Z,95302.38
2022-09-28T06:28:33.560Z,95305.09
2022-09-28T06:30:39.001Z,95315.63
2022-09-28T06:32:42.059Z,95315.66
2022-09-28T08:38:15.427Z,95454.25
2022-09-28T08:40:24.609Z,95455.91
2022-09-28T08:42:34.026Z,95463.72
2022-09-28T08:46:54.606Z,95476.88
2022-09-28T08:49:20.998Z,95470.69
2022-09-28T08:51:26.762Z,95472.38
2022-09-28T08:53:40.777Z,95482.72
2022-09-28T08:55:45.224Z,95484.38
2022-09-28T08:57:53.585Z,95483.34
2022-09-28T08:59:58.264Z,95483.13
2022-09-28T09:02:03.436Z,95492.44
2022-09-28T09:04:08.204Z,95487.53
2022-09-28T09:06:20.627Z,95494.22
2022-09-28T09:08:40.177Z,95492.34
2022-09-28T09:10:53.559Z,95494.50
2022-09-28T09:13:07.251Z,95496.72
2022-09-28T09:15:41.547Z,95498.91
2022-09-28T09:17:55.318Z,95503.50
2022-09-28T09:20:12.284Z,95502.53
2022-09-28T09:22:18.535Z,95497.13
2022-09-28T09:24:28.290Z,95511.09
2022-09-28T09:26:39.427Z,95513.81
2022-09-28T09:29:09.075Z,95519.66
2022-09-28T09:31:26.580Z,95513.19
2022-09-28T09:33:46.208Z,95517.34
2022-09-28T09:36:08.465Z,95522.97
2022-09-28T09:38:27.790Z,95529.78
2022-09-28T09:40:48.289Z,95532.16
2022-09-28T09:43:03.597Z,95538.84
2022-09-28T09:45:26.720Z,95533.63
2022-09-28T09:47:34.871Z,95534.25
2022-09-28T09:49:41.174Z,95536.75
2022-09-28T09:51:48.069Z,95541.03
2022-09-28T09:53:55.392Z,95535.81
2022-09-28T09:56:05.044Z,95534.66
2022-09-28T09:58:14.784Z,95538.00
2022-09-28T10:00:18.553Z,95538.00
2022-09-28T10:02:25.639Z,95531.09
2022-09-28T10:04:31.804Z,95527.56
2022-09-28T10:06:36.193Z,95525.06
2022-09-28T10:08:42.059Z,95524.22
2022-09-28T10:10:50.815Z,95524.72
2022-09-28T10:12:55.189Z,95523.81
2022-09-28T10:14:57.743Z,95524.31
2022-09-28T10:17:03.995Z,95521.25
2022-09-28T10:19:06.671Z,95525.34
2022-09-28T10:21:13.632Z,95528.47
2022-09-28T10:23:22.661Z,95527.50
2022-09-28T10:25:26.060Z,95533.03
2022-09-28T10:27:32.093Z,95528.22
2022-09-28T10:29:43.178Z,95530.69
2022-09-28T10:31:48.320Z,95525.25
2022-09-28T10:33:54.270Z,95520.69
2022-09-28T10:35:57.149Z,95525.81
2022-09-28T10:38:04.439Z,95527.81
2022-09-28T10:40:34.089Z,95522.38
2022-09-28T10:42:37.108Z,95523.91
2022-09-28T10:44:55.790Z,95520.25
2022-09-28T10:47:01.017Z,95521.59
2022-09-28T10:49:06.560Z,95522.22
2022-09-28T10:51:09.196Z,95519.28
2022-09-28T10:53:18.135Z,95517.97
2022-09-28T10:55:30.538Z,95517.50
2022-09-28T10:57:36.616Z,95520.25
2022-09-28T10:59:41.982Z,95518.25
2022-09-28T11:01:48.226Z,95514.78
2022-09-28T11:03:55.994Z,95521.56
2022-09-28T11:06:01.702Z,95522.56
2022-09-28T11:08:08.398Z,95525.22
2022-09-28T11:10:21.256Z,95532.03
2022-09-28T11:12:26.144Z,95514.66
2022-09-28T11:14:39.606Z,95517.16
2022-09-28T11:16:45.977Z,95519.78
2022-09-28T11:18:48.635Z,95523.09
2022-09-28T11:20:51.189Z,95517.28
2022-09-28T11:22:55.637Z,95522.84
2022-09-28T11:25:22.115Z,95508.94
2022-09-28T11:27:26.512Z,95518.59
2022-09-28T11:29:38.028Z,95514.34
2022-09-28T11:31:40.639Z,95518.28
2022-09-28T11:33:47.510Z,95526.75
2022-09-28T11:35:57.170Z,95521.75
2022-09-28T11:38:17.326Z,95521.13
2022-09-28T11:40:30.506Z,95517.56
2022-09-28T11:42:44.297Z,95520.06
2022-09-28T11:44:47.954Z,95520.78
2022-09-28T11:47:02.697Z,95514.84
2022-09-28T11:49:18.444Z,95515.69
2022-09-28T11:51:27.199Z,95514.03
2022-09-28T11:53:35.990Z,95510.91
2022-09-28T11:55:43.807Z,95523.97
2022-09-28T11:57:52.036Z,95521.97
2022-09-28T12:00:00.313Z,95523.25
2022-09-28T12:02:12.918Z,95522.41
2022-09-28T12:04:22.298Z,95524.91
2022-09-28T12:06:32.255Z,95517.06
2022-09-28T12:08:38.026Z,95518.63
2022-09-28T12:10:48.472Z,95523.00
2022-09-28T12:12:57.665Z,95514.25
2022-09-28T12:15:05.890Z,95516.53
2022-09-28T12:17:20.141Z,95521.03
2022-09-28T12:19:31.830Z,95518.28
2022-09-28T12:21:39.582Z,95518.06
2022-09-28T12:23:44.406Z,95512.91
2022-09-28T12:25:52.947Z,95511.63
2022-09-28T12:28:00.301Z,95514.59
2022-09-28T12:30:06.344Z,95520.56
2022-09-28T12:32:18.279Z,95517.94
2022-09-28T12:34:22.340Z,95524.94
2022-09-28T12:36:41.910Z,95518.78
2022-09-28T12:39:19.001Z,95516.88
2022-09-28T12:41:33.582Z,95511.63
2022-09-28T12:43:48.129Z,95510.81
2022-09-28T12:46:12.982Z,95518.56
2022-09-28T12:48:36.273Z,95514.66
2022-09-28T12:50:56.879Z,95516.19
2022-09-28T12:53:20.679Z,95517.56
2022-09-28T12:55:33.905Z,95515.16
2022-09-28T12:57:44.947Z,95520.78
2022-09-28T13:00:00.704Z,95515.66
2022-09-28T13:02:37.541Z,95512.22
2022-09-28T13:04:57.152Z,95505.31
2022-09-28T13:07:06.089Z,95510.53
2022-09-28T13:09:21.841Z,95508.66
2022-09-28T13:11:33.768Z,95514.72
2022-09-28T13:13:42.052Z,95506.03
2022-09-28T13:15:51.030Z,95508.66
2022-09-28T13:18:02.045Z,95518.19
2022-09-28T13:20:13.680Z,95510.34
2022-09-28T13:22:29.095Z,95505.59
2022-09-28T13:24:38.190Z,95509.63
2022-09-28T13:26:45.780Z,95507.38
2022-09-28T13:28:51.334Z,95507.50
2022-09-28T13:30:56.362Z,95515.09
2022-09-28T13:33:02.390Z,95515.09
2022-09-28T13:35:06.352Z,95514.16
2022-09-28T13:37:19.870Z,95510.72
2022-09-28T13:39:38.570Z,95508.13
2022-09-28T13:41:50.617Z,95513.94
2022-09-28T13:44:16.496Z,95518.00
2022-09-28T13:46:28.369Z,95517.06
2022-09-28T13:48:46.031Z,95518.97
2022-09-28T13:51:12.978Z,95525.63
2022-09-28T13:53:24.292Z,95531.09
2022-09-28T13:55:37.223Z,95536.31
2022-09-28T13:57:47.110Z,95543.81
2022-09-28T14:00:02.465Z,95539.78
2022-09-28T14:02:23.809Z,95541.91
2022-09-28T14:04:53.808Z,95540.16
2022-09-28T14:06:57.978Z,95541.44
2022-09-28T14:09:25.715Z,95549.03
2022-09-28T14:11:56.532Z,95546.44
2022-09-28T14:14:00.659Z,95544.88
2022-09-28T14:16:21.880Z,95549.03
2022-09-28T14:18:31.194Z,95548.59
2022-09-28T14:20:36.345Z,95558.16
2022-09-28T14:22:50.194Z,95555.13
2022-09-28T14:25:09.672Z,95554.69
2022-09-28T14:27:41.848Z,95546.91
2022-09-28T14:29:45.550Z,95553.91
2022-09-28T14:31:48.175Z,95555.59
2022-09-28T14:33:57.821Z,95558.41
2022-09-28T14:36:04.629Z,95558.16
2022-09-28T14:38:32.697Z,95550.78
2022-09-28T14:41:13.671Z,95557.59
2022-09-28T14:43:28.015Z,95554.75
2022-09-28T14:45:38.452Z,95549.44
2022-09-28T14:47:43.351Z,95555.16
2022-09-28T14:49:48.890Z,95548.28
2022-09-28T14:52:05.577Z,95552.81
2022-09-28T14:54:18.154Z,95544.75
2022-09-28T14:56:20.973Z,95547.22
2022-09-28T14:58:28.768Z,95548.78
2022-09-28T15:00:31.997Z,95548.88
2022-09-28T15:02:38.420Z,95547.59
2022-09-28T15:04:44.398Z,95543.44
2022-09-28T15:06:48.192Z,95547.72
2022-09-28T15:08:50.921Z,95548.78
2022-09-28T15:10:53.563Z,95550.09
2022-09-28T15:12:57.210Z,95551.97
2022-09-28T15:15:03.613Z,95544.75
2022-09-28T15:17:10.626Z,95548.41
2022-09-28T15:19:27.371Z,95546.88
2022-09-28T15:21:37.553Z,95549.69
2022-09-28T15:23:42.875Z,95542.44
2022-09-28T15:25:52.820Z,95544.34
2022-09-28T15:27:57.400Z,95546.13
2022-09-28T15:30:02.957Z,95549.81
2022-09-28T15:32:05.525Z,95541.13
2022-09-28T15:34:44.408Z,95544.22
2022-09-28T15:36:47.830Z,95542.03
2022-09-28T15:38:56.927Z,95546.72
2022-09-28T15:41:02.750Z,95553.00
2022-09-28T15:43:21.531Z,95550.03
2022-09-28T15:45:28.630Z,95547.19
2022-09-28T15:47:32.919Z,95553.50
2022-09-28T15:49:41.133Z,95555.41
2022-09-28T15:51:52.117Z,95554.72
2022-09-28T15:53:58.884Z,95558.38
2022-09-28T15:56:10.101Z,95562.41
2022-09-28T15:58:18.654Z,95561.09
2022-09-28T16:00:28.475Z,95565.56
2022-09-28T16:02:31.350Z,95572.31
2022-09-28T16:04:38.216Z,95564.22
2022-09-28T16:06:41.869Z,95558.75
2022-09-28T16:08:45.279Z,95562.22
2022-09-28T16:11:10.833Z,95561.50
2022-09-28T16:13:17.836Z,95558.16
2022-09-28T16:15:22.636Z,95567.72
2022-09-28T16:17:32.652Z,95568.50
2022-09-28T16:19:39.331Z,95564.56
2022-09-28T16:21:46.358Z,95560.97
2022-09-28T16:23:52.677Z,95564.13
2022-09-28T16:25:58.720Z,95557.69
2022-09-28T16:28:01.701Z,95564.16
2022-09-28T16:30:17.189Z,95567.44
2022-09-28T16:32:38.183Z,95567.31
2022-09-28T16:34:40.719Z,95568.28
2022-09-28T16:36:45.460Z,95567.97
2022-09-28T16:38:48.954Z,95565.47
2022-09-28T16:40:53.781Z,95570.06
2022-09-28T16:42:59.783Z,95564.22
2022-09-28T16:45:05.190Z,95570.50
2022-09-28T16:47:07.715Z,95570.44
2022-09-28T16:49:18.487Z,95567.34
2022-09-28T16:51:22.872Z,95573.00
2022-09-28T16:53:43.517Z,95579.59
2022-09-28T16:55:47.750Z,95575.75
2022-09-28T16:57:50.490Z,95586.19
2022-09-28T16:59:53.113Z,95584.66
2022-09-28T17:01:56.596Z,95585.91
2022-09-28T17:03:59.333Z,95587.88
2022-09-28T17:06:06.088Z,95588.00
2022-09-28T17:08:14.617Z,95594.16
2022-09-28T17:10:19.195Z,95603.16
2022-09-28T17:12:24.639Z,95602.63
2022-09-28T17:14:27.468Z,95602.13
2022-09-28T17:18:55.532Z,95601.78
2022-09-28T17:20:59.398Z,95601.16
2022-09-28T17:23:03.362Z,95604.63
2022-09-28T17:25:09.056Z,95613.91
2022-09-28T17:27:19.698Z,95616.94
2022-09-28T17:29:23.589Z,95615.56
2022-09-28T17:31:26.698Z,95623.41
2022-09-28T17:33:29.751Z,95621.09
2022-09-28T17:35:34.148Z,95620.25
2022-09-28T17:37:41.123Z,95619.53
2022-09-28T17:39:44.996Z,95622.13
2022-09-28T17:41:47.877Z,95622.47
2022-09-28T17:43:50.615Z,95620.91
2022-09-28T17:45:53.212Z,95626.19
2022-09-28T17:47:57.238Z,95626.94
2022-09-28T17:49:59.779Z,95624.66
2022-09-28T17:52:04.002Z,95628.63
2022-09-28T17:54:08.012Z,95633.09
2022-09-28T17:56:12.080Z,95641.31
2022-09-28T17:58:17.554Z,95635.41
2022-09-28T18:00:20.352Z,95638.00
2022-09-28T18:02:23.708Z,95638.00
2022-09-28T18:04:50.371Z,95635.56
2022-09-28T18:06:48.867Z,95642.66
2022-09-28T18:08:51.447Z,95644.47
2022-09-28T18:10:54.646Z,95642.13
2022-09-28T18:12:58.523Z,95650.81
2022-09-28T18:15:01.137Z,95651.94
2022-09-28T18:17:03.787Z,95656.22
2022-09-28T18:19:06.321Z,95653.81
2022-09-28T18:21:09.225Z,95658.19
2022-09-28T19:47:19.899Z,95721.19
2022-09-28T19:49:23.674Z,95728.28
2022-09-28T19:51:28.249Z,95727.53
2022-09-28T19:53:33.214Z,95732.84
2022-09-28T19:55:36.902Z,95741.75
2022-09-28T19:59:13.604Z,95733.09
2022-09-28T20:01:16.227Z,95732.91
2022-09-28T20:03:21.953Z,95734.78
2022-09-28T20:05:24.523Z,95734.78
2022-09-28T20:07:27.747Z,95734.13
2022-09-28T20:09:30.404Z,95730.38
2022-09-28T20:11:33.617Z,95741.09
2022-09-28T20:13:38.122Z,95740.34
2022-09-28T20:15:42.228Z,95744.59
2022-09-28T20:17:44.811Z,95746.28
2022-09-28T20:19:47.899Z,95746.00
2022-09-28T20:21:50.968Z,95750.09
2022-09-28T20:23:56.236Z,95752.44
2022-09-28T20:25:58.942Z,95751.59
2022-09-28T20:28:02.152Z,95749.09
2022-09-28T20:30:05.304Z,95747.22
2022-09-28T20:32:09.205Z,95746.38
2022-09-28T20:34:13.037Z,95756.06
2022-09-28T20:36:17.294Z,95754.47
2022-09-28T20:38:20.031Z,95755.28
2022-09-28T20:40:22.783Z,95757.91
2022-09-28T20:42:25.442Z,95755.19
2022-09-28T20:44:28.326Z,95753.63
2022-09-28T20:46:31.010Z,95759.69
2022-09-28T20:48:35.388Z,95753.44
2022-09-28T20:50:37.947Z,95753.34
2022-09-28T20:52:40.550Z,95761.34
2022-09-28T20:54:43.136Z,95754.47
2022-09-28T20:56:47.961Z,95755.28
2022-09-28T20:58:51.172Z,95751.97
2022-09-28T21:00:53.928Z,95755.28
2022-09-28T21:02:56.521Z,95751.88
2022-09-28T21:05:00.833Z,95753.53
2022-09-28T21:07:03.414Z,95749.09
2022-09-28T21:09:07.301Z,95746.56
2022-09-28T21:11:09.840Z,95743.97
2022-09-28T21:13:12.424Z,95745.81
2022-09-28T21:15:15.038Z,95744.16
2022-09-28T21:17:17.682Z,95744.22
2022-09-28T21:19:22.345Z,95749.38
2022-09-28T21:21:27.378Z,95748.63
2022-09-28T21:23:30.424Z,95738.09
2022-09-28T21:25:33.047Z,95746.94
2022-09-28T21:27:35.584Z,95745.25
2022-09-28T21:29:38.189Z,95742.09
2022-09-28T21:31:42.393Z,95742.19
2022-09-28T21:33:45.027Z,95741.63
2022-09-28T21:35:47.604Z,95733.97
2022-09-28T21:37:51.825Z,95746.31
2022-09-28T21:39:54.409Z,95748.28
2022-09-28T21:41:57.080Z,95731.28
2022-09-28T21:43:59.849Z,95744.44
2022-09-28T21:46:02.763Z,95744.53
2022-09-28T21:48:05.764Z,95744.72
2022-09-28T21:50:09.289Z,95749.06
2022-09-28T21:52:11.855Z,95747.50
2022-09-28T21:54:15.771Z,95740.69
2022-09-28T21:56:18.634Z,95739.84
2022-09-28T21:58:23.643Z,95739.94
2022-09-28T22:00:26.323Z,95743.66
2022-09-28T22:02:29.772Z,95748.22
2022-09-28T22:04:32.434Z,95748.38
2022-09-28T22:06:35.370Z,95742.75
2022-09-28T22:08:38.878Z,95739.00
2022-09-28T22:10:43.271Z,95742.78
2022-09-28T22:12:45.898Z,95739.28
2022-09-28T22:14:48.529Z,95740.13
2022-09-28T22:16:51.156Z,95745.00
2022-09-28T22:18:54.388Z,95740.97
2022-09-28T22:21:00.660Z,95737.53
2022-09-28T22:23:03.216Z,95728.03
2022-09-28T22:25:06.626Z,95727.44
2022-09-28T22:27:10.588Z,95731.19
2022-09-28T22:29:13.151Z,95732.63
2022-09-28T22:31:16.874Z,95736.88
2022-09-28T22:33:19.491Z,95732.09
2022-09-28T22:35:22.028Z,95735.53
2022-09-28T22:37:28.015Z,95740.38
2022-09-28T22:39:34.238Z,95733.00
2022-09-28T22:41:39.324Z,95739.72
2022-09-28T22:43:43.827Z,95739.34
2022-09-28T22:45:46.544Z,95734.66
2022-09-28T22:47:49.107Z,95736.09
2022-09-28T22:49:51.685Z,95726.50
2022-09-28T22:51:54.373Z,95728.78
2022-09-28T22:53:57.587Z,95730.63
2022-09-28T22:56:01.508Z,95733.22
2022-09-28T22:58:04.209Z,95736.34
2022-09-28T23:00:09.739Z,95734.50
2022-09-28T23:02:12.662Z,95732.75
2022-09-28T23:04:15.223Z,95734.19
2022-09-28T23:06:20.944Z,95737.53
2022-09-28T23:08:24.424Z,95738.94
2022-09-28T23:10:27.052Z,95736.25
2022-09-28T23:12:30.515Z,95737.97
2022-09-28T23:14:33.104Z,95731.91
2022-09-28T23:16:37.016Z,95739.69
2022-09-28T23:18:41.715Z,95737.00
2022-09-28T23:20:44.277Z,95734.22
2022-09-28T23:22:47.454Z,95736.78
2022-09-28T23:24:50.025Z,95735.66
2022-09-28T23:26:52.625Z,95737.16
2022-09-28T23:28:55.723Z,95726.59
2022-09-28T23:31:09.071Z,95720.47
2022-09-28T23:33:17.639Z,95716.09
2022-09-28T23:35:20.304Z,95718.59
2022-09-28T23:37:22.848Z,95710.88
2022-09-28T23:39:25.603Z,95717.78
2022-09-28T23:41:28.791Z,95720.19
2022-09-28T23:43:31.350Z,95716.94
2022-09-28T23:45:34.104Z,95721.19
2022-09-28T23:47:38.196Z,95728.19
2022-09-28T23:49:42.095Z,95724.47
2022-09-28T23:51:44.677Z,95720.03
2022-09-28T23:53:47.611Z,95721.63
2022-09-28T23:55:50.211Z,95723.09
2022-09-28T23:57:55.493Z,95721.16
2022-09-28T23:59:58.608Z,95721.91
